Terminal Aerodrome Forecast
Issued by NWS

Home | Current Version | Previous Version | Text Only | Print | Product List | Glossary On
Versions: 1 2 3 4 5 6 7 8 9 10 11 12 13 14 15 16 17 18 19 20 21
000
FTUS42 KJAX 161751
TAFVQQ
TAF
KVQQ 161751Z 1618/1718 33004KT P6SM BKN035 OVC250
     FM162100 01005KT P6SM FEW025 BKN035 OVC100
     FM162300 03006KT 6SM -SHRA SCT040 BKN100
      TEMPO 1623/1703 3SM TSRA BKN025CB
     FM170300 01007KT P6SM SHRA SCT008 OVC015=

USA.gov is the U.S. government's official web portal to all federal, state and local government web resources and services.